MDPP/POP METAR and TAF weather

Enter ICAO airport designator
Station Type Date Time Source
MDPP METAR 2020/01/17 14:00 UTC NOAA

MDPP 171400Z 00000KT 9999 FEW018 27/22 Q1021


Station Type Date Time Source
MDPP Decoded METAR 2020/01/17 14:00 UTC NOAA

Puerto Plata International, Dominican Republic (MDPP) 19-45N 070-33W
Jan 17, 2020 - 09:00 AM EST / 2020.01.17 1400 UTC
Wind: Calm:0
Visibility: greater than 7 mile(s):0
Sky conditions: mostly clear
Temperature: 80 F (27 C)
Dew Point: 71 F (22 C)
Relative Humidity: 74%
Pressure (altimeter): 30.15 in. Hg (1021 hPa)
ob: MDPP 171400Z 00000KT 9999 FEW018 27/22 Q1021
cycle: 14

Station Type Date Time Source
MDPP TAF 2020/01/17 12:25 UTC NOAA

TAF MDPP 171000Z 1712/1812 09010KT 9999 SCT018 PROB30 1712/1718 7000 -RA BKN018

Example: see airport list